createdAt,value
2018-02-22T00:00:45.837Z,102635.91
2018-02-22T00:03:12.920Z,102639.87
2018-02-22T00:05:39.244Z,102640.53
2018-02-22T00:08:05.687Z,102639.22
2018-02-22T00:10:32.004Z,102643.36
2018-02-22T00:12:59.076Z,102636.00
2018-02-22T00:15:25.843Z,102632.03
2018-02-22T00:17:52.193Z,102630.82
2018-02-22T00:20:18.517Z,102637.83
2018-02-22T00:22:45.060Z,102631.92
2018-02-22T00:25:11.491Z,102632.91
2018-02-22T00:27:38.245Z,102627.27
2018-02-22T00:30:04.609Z,102622.54
2018-02-22T00:32:30.935Z,102619.20
2018-02-22T00:34:58.137Z,102616.48
2018-02-22T00:37:24.850Z,102623.97
2018-02-22T00:39:51.216Z,102616.67
2018-02-22T00:42:17.687Z,102612.97
2018-02-22T00:44:44.236Z,102611.25
2018-02-22T00:47:10.553Z,102612.49
2018-02-22T00:49:36.872Z,102614.77
2018-02-22T00:52:03.477Z,102616.52
2018-02-22T00:54:29.820Z,102614.61
2018-02-22T00:56:56.132Z,102614.62
2018-02-22T00:59:22.602Z,102605.38
2018-02-22T01:01:49.660Z,102609.15
2018-02-22T01:04:16.723Z,102608.86
2018-02-22T01:06:43.180Z,102605.38
2018-02-22T01:09:09.520Z,102604.45
2018-02-22T01:11:35.867Z,102602.30
2018-02-22T01:14:02.428Z,102605.92
2018-02-22T01:16:29.456Z,102597.70
2018-02-22T01:18:55.797Z,102606.86
2018-02-22T01:21:22.275Z,102598.61
2018-02-22T01:23:49.508Z,102603.96
2018-02-22T01:26:15.840Z,102606.77
2018-02-22T01:28:42.159Z,102600.48
2018-02-22T01:31:08.625Z,102599.30
2018-02-22T01:33:34.982Z,102599.30
2018-02-22T01:36:02.535Z,102599.62
2018-02-22T01:38:28.859Z,102593.17
2018-02-22T01:40:55.703Z,102596.73
2018-02-22T01:43:22.030Z,102596.64
2018-02-22T01:45:48.359Z,102595.94
2018-02-22T01:48:14.813Z,102592.02
2018-02-22T01:50:41.228Z,102588.47
2018-02-22T01:53:07.566Z,102587.39
2018-02-22T01:55:34.015Z,102591.31
2018-02-22T01:58:00.339Z,102593.69
2018-02-22T02:00:26.653Z,102592.37
2018-02-22T02:02:53.856Z,102586.28
2018-02-22T02:05:20.185Z,102584.45
2018-02-22T02:07:46.494Z,102582.44
2018-02-22T02:10:13.072Z,102582.47
2018-02-22T02:12:39.416Z,102579.90
2018-02-22T02:15:05.744Z,102578.24
2018-02-22T02:17:32.288Z,102584.53
2018-02-22T02:19:59.331Z,102579.27
2018-02-22T02:22:25.681Z,102574.97
2018-02-22T02:24:52.057Z,102575.48
2018-02-22T02:27:19.329Z,102581.23
2018-02-22T02:29:45.668Z,102583.83
2018-02-22T02:32:12.042Z,102579.13
2018-02-22T02:34:38.602Z,102576.23
2018-02-22T02:37:06.989Z,102579.98
2018-02-22T02:39:33.319Z,102575.79
2018-02-22T02:42:00.485Z,102575.02
2018-02-22T02:44:26.933Z,102574.09
2018-02-22T02:46:53.245Z,102569.77
2018-02-22T02:49:19.580Z,102566.87
2018-02-22T02:51:46.308Z,102565.72
2018-02-22T02:54:12.641Z,102562.51
2018-02-22T02:56:38.997Z,102562.20
2018-02-22T02:59:05.536Z,102563.42
2018-02-22T03:01:31.944Z,102563.09
2018-02-22T03:03:58.263Z,102565.31
2018-02-22T03:06:24.740Z,102573.73
2018-02-22T03:08:51.075Z,102567.21
2018-02-22T03:11:17.473Z,102560.14
2018-02-22T03:13:43.955Z,102567.24
2018-02-22T03:16:10.278Z,102565.72
2018-02-22T03:18:36.608Z,102563.19
2018-02-22T03:21:03.279Z,102564.09
2018-02-22T03:23:29.620Z,102563.09
2018-02-22T03:25:55.947Z,102563.12
2018-02-22T03:28:22.419Z,102562.44
2018-02-22T03:30:49.493Z,102560.85
2018-02-22T03:33:16.200Z,102564.09
2018-02-22T03:35:42.984Z,102562.84
2018-02-22T03:38:09.456Z,102558.34
2018-02-22T03:40:35.777Z,102559.73
2018-02-22T03:43:02.346Z,102554.56
2018-02-22T03:45:28.668Z,102560.30
2018-02-22T03:47:54.985Z,102559.02
2018-02-22T03:50:21.463Z,102556.89
2018-02-22T03:52:47.779Z,102558.98
2018-02-22T03:55:14.093Z,102561.34
2018-02-22T03:57:40.589Z,102560.09
2018-02-22T04:00:06.931Z,102560.33
2018-02-22T04:02:33.257Z,102569.19
2018-02-22T04:04:59.777Z,102566.33
2018-02-22T04:07:26.158Z,102567.24
2018-02-22T04:09:53.234Z,102571.20
2018-02-22T04:12:19.679Z,102570.02
2018-02-22T04:14:46.125Z,102564.23
2018-02-22T04:17:12.448Z,102565.66
2018-02-22T04:19:39.072Z,102568.14
2018-02-22T04:22:06.917Z,102561.59
2018-02-22T04:24:33.233Z,102562.26
2018-02-22T04:26:59.557Z,102562.30
2018-02-22T04:29:26.008Z,102565.53
2018-02-22T04:31:52.519Z,102565.11
2018-02-22T04:34:18.856Z,102566.38
2018-02-22T04:36:45.328Z,102566.95
2018-02-22T04:39:11.671Z,102567.91
2018-02-22T04:41:38.089Z,102572.31
2018-02-22T04:44:04.513Z,102562.74
2018-02-22T04:46:30.856Z,102571.38
2018-02-22T04:48:57.325Z,102563.16
2018-02-22T04:51:23.933Z,102565.28
2018-02-22T04:53:50.269Z,102571.84
2018-02-22T04:56:16.600Z,102577.11
2018-02-22T04:58:44.289Z,102575.22
2018-02-22T05:01:10.969Z,102580.72
2018-02-22T05:03:37.286Z,102576.94
2018-02-22T05:06:03.839Z,102580.08
2018-02-22T05:08:30.356Z,102577.42
2018-02-22T05:10:56.684Z,102579.19
2018-02-22T05:13:23.348Z,102574.94
2018-02-22T05:15:50.190Z,102576.91
2018-02-22T05:18:16.529Z,102581.36
2018-02-22T05:20:42.856Z,102580.10
2018-02-22T05:23:09.300Z,102578.04
2018-02-22T05:25:35.715Z,102576.56
2018-02-22T05:28:02.209Z,102586.82
2018-02-22T05:30:29.382Z,102590.77
2018-02-22T05:32:56.450Z,102588.52
2018-02-22T05:35:22.795Z,102589.55
2018-02-22T05:37:49.257Z,102591.31
2018-02-22T05:40:15.586Z,102591.05
2018-02-22T05:42:41.903Z,102589.55
2018-02-22T05:45:08.387Z,102593.56
2018-02-22T05:47:34.725Z,102593.03
2018-02-22T05:50:01.125Z,102589.84
2018-02-22T05:52:27.712Z,102592.85
2018-02-22T05:54:54.031Z,102591.83
2018-02-22T05:57:20.437Z,102594.25
2018-02-22T05:59:46.944Z,102597.94
2018-02-22T06:02:13.292Z,102597.88
2018-02-22T06:04:40.405Z,102591.39
2018-02-22T06:07:07.041Z,102593.95
2018-02-22T06:09:33.470Z,102596.30
2018-02-22T06:12:00.387Z,102599.97
2018-02-22T06:14:26.761Z,102604.03
2018-02-22T06:16:53.076Z,102601.91
2018-02-22T06:19:20.502Z,102606.86
2018-02-22T06:21:47.313Z,102605.72
2018-02-22T06:24:13.647Z,102610.36
2018-02-22T06:26:40.086Z,102610.70
2018-02-22T06:29:06.528Z,102611.81
2018-02-22T06:31:32.855Z,102604.80
2018-02-22T06:33:59.209Z,102615.47
2018-02-22T06:36:25.758Z,102608.22
2018-02-22T06:38:52.095Z,102612.81
2018-02-22T06:41:18.416Z,102615.68
2018-02-22T06:43:44.860Z,102616.29
2018-02-22T06:46:11.215Z,102623.34
2018-02-22T06:48:37.565Z,102623.02
2018-02-22T06:51:04.836Z,102629.29
2018-02-22T06:53:31.400Z,102629.94
2018-02-22T06:55:57.731Z,102623.61
2018-02-22T06:58:24.235Z,102632.95
2018-02-22T07:00:51.352Z,102632.66
2018-02-22T07:03:17.676Z,102626.33
2018-02-22T07:05:44.418Z,102622.95
2018-02-22T07:08:10.885Z,102628.75
2018-02-22T07:10:37.230Z,102635.67
2018-02-22T07:13:03.687Z,102630.29
2018-02-22T07:15:30.753Z,102628.73
2018-02-22T07:17:57.990Z,102627.72
2018-02-22T07:20:24.454Z,102627.73
2018-02-22T07:22:51.268Z,102633.16
2018-02-22T07:25:18.110Z,102609.06
2018-02-22T07:27:44.538Z,102630.70
2018-02-22T07:30:11.313Z,102631.11
2018-02-22T07:32:38.120Z,102637.34
2018-02-22T07:35:05.021Z,102637.30
2018-02-22T07:37:32.571Z,102641.36
2018-02-22T07:39:59.281Z,102640.77
2018-02-22T07:42:25.612Z,102636.47
2018-02-22T07:44:52.058Z,102637.10
2018-02-22T07:47:18.393Z,102643.22
2018-02-22T07:49:44.726Z,102646.83
2018-02-22T07:52:11.272Z,102646.83
2018-02-22T07:54:37.597Z,102650.80
2018-02-22T07:57:03.925Z,102652.12
2018-02-22T07:59:30.351Z,102647.71
2018-02-22T08:01:56.743Z,102659.43
2018-02-22T08:04:23.082Z,102662.24
2018-02-22T08:06:49.592Z,102666.02
2018-02-22T08:09:15.953Z,102671.84
2018-02-22T08:11:42.777Z,102671.60
2018-02-22T08:14:09.529Z,102671.80
2018-02-22T08:16:36.379Z,102674.66
2018-02-22T08:19:02.773Z,102676.91
2018-02-22T08:21:29.123Z,102683.23
2018-02-22T08:23:55.703Z,102682.80
2018-02-22T08:26:22.544Z,102677.58
2018-02-22T08:28:49.320Z,102671.13
2018-02-22T08:31:16.153Z,102680.98
2018-02-22T08:33:43.084Z,102665.36
2018-02-22T08:36:09.816Z,102680.91
2018-02-22T08:38:36.603Z,102678.27
2018-02-22T08:41:03.398Z,102676.86
2018-02-22T08:43:30.219Z,102672.53
2018-02-22T08:45:57.120Z,102678.91
2018-02-22T08:48:23.985Z,102671.81
2018-02-22T08:50:50.717Z,102674.50
2018-02-22T08:53:17.472Z,102672.50
2018-02-22T08:55:44.226Z,102668.56
2018-02-22T08:58:12.512Z,102672.17
2018-02-22T09:00:39.360Z,102664.39
2018-02-22T09:03:06.197Z,102669.69
2018-02-22T09:05:32.929Z,102659.14
2018-02-22T09:07:59.773Z,102664.03
2018-02-22T09:10:26.537Z,102660.59
2018-02-22T09:12:54.080Z,102656.30
2018-02-22T09:15:20.829Z,102661.18
2018-02-22T09:17:47.700Z,102666.63
2018-02-22T09:20:14.441Z,102665.34
2018-02-22T09:22:41.199Z,102660.90
2018-02-22T09:25:08.129Z,102657.89
2018-02-22T09:27:34.772Z,102653.96
2018-02-22T09:30:01.532Z,102661.58
2018-02-22T09:32:28.360Z,102657.61
2018-02-22T09:34:55.147Z,102658.85
2018-02-22T09:37:22.840Z,102658.53
2018-02-22T09:39:49.681Z,102664.41
2018-02-22T09:42:16.571Z,102664.89
2018-02-22T09:44:43.327Z,102659.24
2018-02-22T09:47:09.669Z,102653.87
2018-02-22T09:49:36.107Z,102657.48
2018-02-22T09:52:02.960Z,102657.67
2018-02-22T09:54:30.608Z,102655.47
2018-02-22T09:56:57.760Z,102651.98
2018-02-22T09:59:24.415Z,102650.66
2018-02-22T10:01:51.077Z,102658.59
2018-02-22T10:04:18.118Z,102656.27
2018-02-22T10:06:44.875Z,102658.16
2018-02-22T10:09:11.788Z,102660.44
2018-02-22T10:11:38.609Z,102658.39
2018-02-22T10:14:04.957Z,102657.06
2018-02-22T10:16:31.299Z,102657.22
2018-02-22T10:18:57.874Z,102656.30
2018-02-22T10:21:24.220Z,102658.91
2018-02-22T10:23:51.043Z,102652.73
2018-02-22T10:26:17.893Z,102650.53
2018-02-22T10:28:44.687Z,102651.05
2018-02-22T10:31:11.768Z,102655.09
2018-02-22T10:33:38.228Z,102653.22
2018-02-22T10:36:04.900Z,102652.73
2018-02-22T10:38:31.227Z,102654.05
2018-02-22T10:40:58.365Z,102655.41
2018-02-22T10:43:24.829Z,102651.05
2018-02-22T10:45:51.169Z,102658.94
2018-02-22T10:48:17.513Z,102658.50
2018-02-22T10:50:44.702Z,102654.25
2018-02-22T10:53:11.024Z,102650.41
2018-02-22T10:55:37.912Z,102651.01
2018-02-22T10:58:04.873Z,102649.25
2018-02-22T11:00:37.370Z,102649.88
2018-02-22T11:03:03.717Z,102650.84
2018-02-22T11:05:31.147Z,102647.75
2018-02-22T11:07:57.910Z,102648.30
2018-02-22T11:10:24.847Z,102647.67
2018-02-22T11:12:51.321Z,102649.28
2018-02-22T11:15:18.392Z,102655.45
2018-02-22T11:17:44.980Z,102643.16
2018-02-22T11:20:11.325Z,102641.36
2018-02-22T11:22:38.157Z,102641.88
2018-02-22T11:25:04.832Z,102642.39
2018-02-22T11:27:31.190Z,102641.51
2018-02-22T11:29:58.568Z,102642.39
2018-02-22T11:32:25.141Z,102642.47
2018-02-22T11:34:51.494Z,102639.42
2018-02-22T11:37:17.829Z,102636.45
2018-02-22T11:39:44.468Z,102635.45
2018-02-22T11:42:10.797Z,102633.33
2018-02-22T11:44:37.144Z,102629.17
2018-02-22T11:47:03.592Z,102624.45
2018-02-22T11:49:30.653Z,102622.28
2018-02-22T11:51:57.713Z,102619.68
2018-02-22T11:54:24.788Z,102623.61
2018-02-22T11:56:51.252Z,102619.27
2018-02-22T11:59:17.574Z,102614.11
2018-02-22T12:01:43.920Z,102611.98
2018-02-22T12:04:10.366Z,102602.69
2018-02-22T12:06:37.491Z,102608.12
2018-02-22T12:09:03.893Z,102606.77
2018-02-22T12:11:30.404Z,102606.77
2018-02-22T12:13:56.924Z,102607.69
2018-02-22T12:16:23.258Z,102606.92
2018-02-22T12:18:49.865Z,102604.77
2018-02-22T12:21:16.930Z,102601.72
2018-02-22T12:23:44.009Z,102600.65
2018-02-22T12:26:10.888Z,102596.80
2018-02-22T12:28:37.816Z,102593.39
2018-02-22T12:31:04.601Z,102590.75
2018-02-22T12:33:31.634Z,102593.91
2018-02-22T12:35:59.118Z,102588.19
2018-02-22T12:38:25.979Z,102590.27
2018-02-22T12:40:52.324Z,102586.06
2018-02-22T12:43:19.563Z,102583.02
2018-02-22T12:45:46.036Z,102579.97
2018-02-22T12:48:12.830Z,102571.20
2018-02-22T12:50:39.682Z,102575.60
2018-02-22T12:53:06.448Z,102566.23
2018-02-22T12:55:33.301Z,102571.48
2018-02-22T12:58:00.937Z,102570.16
2018-02-22T13:00:27.673Z,102563.16
2018-02-22T13:02:54.345Z,102558.27
2018-02-22T13:05:21.309Z,102559.75
2018-02-22T13:07:48.885Z,102550.34
2018-02-22T13:10:16.433Z,102542.94
2018-02-22T13:12:43.984Z,102537.66
2018-02-22T13:15:10.710Z,102536.85
2018-02-22T13:17:37.653Z,102531.61
2018-02-22T13:20:04.365Z,102534.89
2018-02-22T13:22:31.257Z,102533.12
2018-02-22T13:24:57.956Z,102535.00
2018-02-22T13:27:24.844Z,102526.67
2018-02-22T13:29:51.624Z,102521.91
2018-02-22T13:32:17.952Z,102515.86
2018-02-22T13:34:44.312Z,102512.34
2018-02-22T13:37:26.366Z,102513.70
2018-02-22T13:39:53.035Z,102502.09
2018-02-22T13:42:19.403Z,102494.20
2018-02-22T13:45:04.191Z,102493.77
2018-02-22T13:47:30.522Z,102496.28
2018-02-22T13:53:07.827Z,102488.55
2018-02-22T13:55:34.184Z,102485.95
2018-02-22T13:58:01.641Z,102482.09
2018-02-22T14:00:46.501Z,102473.02
2018-02-22T14:03:13.124Z,102477.90
2018-02-22T14:05:39.474Z,102473.44
2018-02-22T14:08:05.804Z,102470.14
2018-02-22T14:10:32.345Z,102469.00
2018-02-22T14:12:58.718Z,102462.84
2018-02-22T14:15:33.659Z,102465.47
2018-02-22T14:18:00.054Z,102460.37
2018-02-22T14:20:26.431Z,102460.23
2018-02-22T14:22:53.646Z,102459.30
2018-02-22T14:25:20.297Z,102458.56
2018-02-22T14:27:46.932Z,102460.39
2018-02-22T14:30:13.702Z,102453.80
2018-02-22T14:32:41.237Z,102456.74
2018-02-22T14:35:08.012Z,102451.30
2018-02-22T14:37:34.772Z,102449.81
2018-02-22T14:40:01.989Z,102456.34
2018-02-22T14:42:29.885Z,102446.22
2018-02-22T14:44:56.913Z,102442.85
2018-02-22T14:47:23.272Z,102446.43
2018-02-22T14:49:49.991Z,102450.89
2018-02-22T14:52:16.865Z,102454.83
2018-02-22T14:54:43.558Z,102451.17
2018-02-22T14:57:09.904Z,102448.21
2018-02-22T14:59:36.679Z,102448.05
2018-02-22T15:02:03.089Z,102446.94
2018-02-22T15:04:30.065Z,102452.95
2018-02-22T15:06:56.509Z,102444.62
2018-02-22T15:09:22.856Z,102434.07
2018-02-22T15:11:50.347Z,102446.48
2018-02-22T15:14:17.417Z,102444.09
2018-02-22T15:16:43.789Z,102441.09
2018-02-22T15:19:10.220Z,102445.33
2018-02-22T15:21:36.556Z,102441.50
2018-02-22T15:24:03.065Z,102444.19
2018-02-22T15:26:29.550Z,102443.00
2018-02-22T15:28:56.389Z,102443.88
2018-02-22T15:31:23.166Z,102444.09
2018-02-22T15:33:49.998Z,102448.28
2018-02-22T15:36:16.346Z,102452.08
2018-02-22T15:38:42.997Z,102448.11
2018-02-22T15:41:10.085Z,102445.55
2018-02-22T15:43:36.552Z,102446.38
2018-02-22T15:46:03.299Z,102440.51
2018-02-22T15:48:29.622Z,102442.41
2018-02-22T15:50:55.963Z,102442.05
2018-02-22T15:53:22.652Z,102445.44
2018-02-22T15:55:49.612Z,102443.16
2018-02-22T15:58:17.241Z,102446.98
2018-02-22T16:00:44.036Z,102434.98
2018-02-22T16:03:10.491Z,102439.64
2018-02-22T16:05:37.204Z,102446.11
2018-02-22T16:08:04.723Z,102443.97
2018-02-22T16:10:31.577Z,102439.89
2018-02-22T16:12:58.268Z,102442.64
2018-02-22T16:15:25.803Z,102437.92
2018-02-22T16:17:52.628Z,102436.20
2018-02-22T16:20:19.429Z,102438.00
2018-02-22T16:22:46.976Z,102437.98
2018-02-22T16:25:13.993Z,102440.59
2018-02-22T16:27:40.823Z,102440.63
2018-02-22T16:30:07.190Z,102441.95
2018-02-22T16:32:33.524Z,102438.64
2018-02-22T16:35:00.121Z,102445.20
2018-02-22T16:37:26.838Z,102440.09
2018-02-22T16:39:53.163Z,102443.61
2018-02-22T16:42:19.485Z,102448.53
2018-02-22T16:44:46.031Z,102452.31
2018-02-22T16:47:12.749Z,102452.40
2018-02-22T16:49:39.064Z,102451.84
2018-02-22T16:52:05.512Z,102456.30
2018-02-22T16:54:31.832Z,102454.05
2018-02-22T16:56:58.198Z,102456.38
2018-02-22T16:59:24.757Z,102461.38
2018-02-22T17:01:51.113Z,102460.70
2018-02-22T17:04:17.443Z,102462.95
2018-02-22T17:06:44.000Z,102457.93
2018-02-22T17:09:10.531Z,102461.16
2018-02-22T17:11:37.004Z,102458.27
2018-02-22T17:14:04.513Z,102459.00
2018-02-22T17:16:30.841Z,102461.81
2018-02-22T17:18:57.177Z,102457.53
2018-02-22T17:21:23.954Z,102463.18
2018-02-22T17:23:50.284Z,102462.51
2018-02-22T17:26:23.706Z,102472.56
2018-02-22T17:28:56.419Z,102469.92
2018-02-22T17:31:28.937Z,102467.31
2018-02-22T17:33:56.752Z,102471.80
2018-02-22T17:36:29.265Z,102461.11
2018-02-22T17:42:01.597Z,102471.59
2018-02-22T17:44:27.969Z,102467.16
2018-02-22T17:46:54.352Z,102463.79
2018-02-22T17:49:21.661Z,102470.64
2018-02-22T17:51:48.036Z,102461.55
2018-02-22T17:54:14.541Z,102466.23
2018-02-22T17:56:41.042Z,102474.64
2018-02-22T17:59:08.212Z,102468.91
2018-02-22T18:01:34.565Z,102468.55
2018-02-22T18:04:01.041Z,102467.20
2018-02-22T18:06:27.468Z,102467.99
2018-02-22T18:08:54.110Z,102466.11
2018-02-22T18:11:21.074Z,102475.72
2018-02-22T18:13:47.412Z,102473.64
2018-02-22T18:16:13.772Z,102474.08
2018-02-22T18:18:41.024Z,102478.77
2018-02-22T18:21:08.015Z,102487.77
2018-02-22T18:23:34.381Z,102486.29
2018-02-22T18:26:00.832Z,102488.73
2018-02-22T18:28:27.539Z,102493.09
2018-02-22T18:30:53.981Z,102495.70
2018-02-22T18:33:20.348Z,102494.65
2018-02-22T18:35:46.852Z,102501.01
2018-02-22T18:38:13.211Z,102499.77
2018-02-22T18:40:45.714Z,102498.69
2018-02-22T18:43:18.153Z,102506.55
2018-02-22T18:45:44.543Z,102499.30
2018-02-22T18:48:11.015Z,102502.79
2018-02-22T18:50:37.606Z,102506.14
2018-02-22T18:53:03.963Z,102507.05
2018-02-22T18:55:30.288Z,102512.66
2018-02-22T18:57:56.792Z,102508.34
2018-02-22T19:00:23.231Z,102510.21
2018-02-22T19:02:49.573Z,102503.95
2018-02-22T19:05:16.218Z,102508.09
2018-02-22T19:07:42.597Z,102511.30
2018-02-22T19:10:09.820Z,102509.25
2018-02-22T19:12:36.383Z,102508.25
2018-02-22T19:15:02.766Z,102505.05
2018-02-22T19:17:29.746Z,102511.30
2018-02-22T19:19:56.719Z,102509.30
2018-02-22T19:22:23.505Z,102506.83
2018-02-22T19:24:50.366Z,102507.70
2018-02-22T19:27:16.709Z,102506.91
2018-02-22T19:29:43.217Z,102505.53
2018-02-22T19:32:10.471Z,102506.78
2018-02-22T19:34:36.768Z,102506.34
2018-02-22T19:37:03.144Z,102507.02
2018-02-22T19:39:30.661Z,102506.38
2018-02-22T19:41:56.982Z,102507.02
2018-02-22T19:44:23.354Z,102510.63
2018-02-22T19:46:49.878Z,102513.82
2018-02-22T19:49:16.597Z,102503.25
2018-02-22T19:51:43.049Z,102509.58
2018-02-22T19:54:09.602Z,102507.30
2018-02-22T19:56:35.977Z,102508.10
2018-02-22T19:59:03.214Z,102515.49
2018-02-22T20:01:29.742Z,102519.02
2018-02-22T20:03:56.090Z,102520.81
2018-02-22T20:06:22.497Z,102522.36
2018-02-22T20:08:48.971Z,102518.33
2018-02-22T20:11:16.150Z,102524.45
2018-02-22T20:13:43.272Z,102524.89
2018-02-22T20:16:09.767Z,102528.72
2018-02-22T20:18:36.250Z,102529.56
2018-02-22T20:21:02.632Z,102523.14
2018-02-22T20:23:29.361Z,102523.48
2018-02-22T20:25:56.467Z,102525.91
2018-02-22T20:28:23.443Z,102532.25
2018-02-22T20:30:50.019Z,102533.13
2018-02-22T20:33:17.118Z,102538.09
2018-02-22T20:35:43.537Z,102533.95
2018-02-22T20:38:11.063Z,102529.03
2018-02-22T20:40:38.156Z,102528.05
2018-02-22T20:43:04.496Z,102525.52
2018-02-22T20:45:31.165Z,102529.91
2018-02-22T20:47:57.539Z,102528.59
2018-02-22T20:50:24.681Z,102531.41
2018-02-22T20:53:01.437Z,102531.52
2018-02-22T20:55:30.749Z,102525.48
2018-02-22T20:57:57.125Z,102525.52
2018-02-22T21:00:23.761Z,102528.19
2018-02-22T21:02:50.849Z,102528.59
2018-02-22T21:05:17.213Z,102531.64
2018-02-22T21:07:43.743Z,102529.15
2018-02-22T21:10:10.168Z,102532.59
2018-02-22T21:12:36.545Z,102537.91
2018-02-22T21:15:03.169Z,102532.92
2018-02-22T21:17:29.530Z,102533.91
2018-02-22T21:19:55.861Z,102533.11
2018-02-22T21:22:22.438Z,102533.58
2018-02-22T21:24:48.789Z,102537.72
2018-02-22T21:27:15.678Z,102543.27
2018-02-22T21:29:42.036Z,102541.98
2018-02-22T21:32:09.566Z,102536.56
2018-02-22T21:34:36.069Z,102536.09
2018-02-22T21:37:02.416Z,102544.37
2018-02-22T21:39:28.782Z,102539.20
2018-02-22T21:41:55.309Z,102545.46
2018-02-22T21:44:21.689Z,102553.33
2018-02-22T21:46:48.816Z,102546.58
2018-02-22T21:49:15.272Z,102555.78
2018-02-22T21:51:41.631Z,102542.84
2018-02-22T21:54:08.815Z,102547.48
2018-02-22T21:56:35.266Z,102545.27
2018-02-22T21:59:01.644Z,102545.16
2018-02-22T22:01:28.009Z,102542.59
2018-02-22T22:03:54.704Z,102548.69
2018-02-22T22:06:21.079Z,102550.11
2018-02-22T22:08:48.592Z,102542.81
2018-02-22T22:11:14.948Z,102554.37
2018-02-22T22:13:41.448Z,102549.16
2018-02-22T22:16:07.908Z,102548.79
2018-02-22T22:18:34.253Z,102550.05
2018-02-22T22:21:00.600Z,102544.84
2018-02-22T22:23:27.144Z,102541.94
2018-02-22T22:25:53.681Z,102540.41
2018-02-22T22:28:20.008Z,102542.13
2018-02-22T22:30:46.564Z,102536.56
2018-02-22T22:33:12.899Z,102539.23
2018-02-22T22:35:39.249Z,102536.93
2018-02-22T22:38:05.861Z,102538.45
2018-02-22T22:40:32.216Z,102537.40
2018-02-22T22:42:58.566Z,102540.06
2018-02-22T22:45:25.048Z,102530.91
2018-02-22T22:47:51.832Z,102534.08
2018-02-22T22:50:18.212Z,102530.20
2018-02-22T22:52:45.300Z,102524.59
2018-02-22T22:55:12.183Z,102527.36
2018-02-22T22:57:38.773Z,102532.15
2018-02-22T23:00:05.162Z,102528.51
2018-02-22T23:02:31.939Z,102522.94
2018-02-22T23:04:59.015Z,102526.17
2018-02-22T23:07:25.492Z,102522.45
2018-02-22T23:09:51.985Z,102524.20
2018-02-22T23:12:18.425Z,102525.72
2018-02-22T23:14:44.795Z,102535.78
2018-02-22T23:17:11.668Z,102521.39
2018-02-22T23:19:38.032Z,102529.29
2018-02-22T23:22:05.097Z,102530.98
2018-02-22T23:24:31.889Z,102527.00
2018-02-22T23:26:58.209Z,102539.58
2018-02-22T23:29:24.975Z,102536.38
2018-02-22T23:31:51.343Z,102542.81
2018-02-22T23:34:18.461Z,102543.72
2018-02-22T23:36:44.920Z,102547.63
2018-02-22T23:39:11.288Z,102544.50
2018-02-22T23:41:50.869Z,102539.30
2018-02-22T23:44:17.364Z,102548.39
2018-02-22T23:46:43.749Z,102538.58
2018-02-22T23:49:10.549Z,102540.58
2018-02-22T23:51:37.659Z,102539.08
2018-02-22T23:54:04.111Z,102537.14
2018-02-22T23:56:30.657Z,102536.77
2018-02-22T23:58:56.985Z,102536.30
